Time;durP1;ratioP1;P1;durP2;ratioP2;P2;SDS_P1;SDS_P2;PMS_P1;PMS_P2;Temp;Humidity;BMP_temperature;BMP_pressure;BME280_temperature;BME280_humidity;BME280_pressure;Samples;Min_cycle;Max_cycle;Signal;HPM_P1;HPM_P2
2022/10/16 00:01:36;;;;;;;1.43;1.00;;;16.20;99.90;;;;;;5064960;28;20200;-32
2022/10/16 00:04:03;;;;;;;2.20;0.90;;;16.20;99.90;;;;;;5049599;28;20204;-32
2022/10/16 00:06:33;;;;;;;1.10;0.70;;;16.20;99.90;;;;;;5048208;28;20248;-32
2022/10/16 00:09:03;;;;;;;1.67;0.80;;;16.20;99.90;;;;;;5049867;28;20703;-32
2022/10/16 00:11:33;;;;;;;1.80;0.63;;;16.20;99.90;;;;;;5049767;28;20200;-32
2022/10/16 00:14:03;;;;;;;0.50;0.40;;;16.20;99.90;;;;;;5048405;28;20710;-32
2022/10/16 00:16:31;;;;;;;0.77;0.77;;;16.20;99.90;;;;;;5049480;28;20223;-32
2022/10/16 00:19:01;;;;;;;0.60;0.60;;;16.20;99.90;;;;;;5049069;28;20239;-32
2022/10/16 00:21:29;;;;;;;0.77;0.70;;;16.20;99.90;;;;;;5049441;28;20258;-32
2022/10/16 00:24:04;;;;;;;1.07;0.67;;;16.20;99.90;;;;;;5049455;28;20204;-32
2022/10/16 00:26:33;;;;;;;1.37;0.60;;;16.20;99.90;;;;;;5064205;28;20652;-32
2022/10/16 00:29:00;;;;;;;3.20;0.93;;;16.20;99.90;;;;;;5049480;28;20207;-32
2022/10/16 00:31:28;;;;;;;3.17;0.70;;;16.20;99.90;;;;;;5049403;28;20204;-32
2022/10/16 00:33:58;;;;;;;2.63;0.90;;;16.20;99.90;;;;;;5048375;28;20617;-32
2022/10/16 00:36:26;;;;;;;1.67;0.80;;;16.10;99.90;;;;;;5049171;28;20315;-32
2022/10/16 00:38:55;;;;;;;2.40;0.70;;;16.10;99.90;;;;;;5047775;28;20196;-32
2022/10/16 00:41:25;;;;;;;1.20;0.90;;;16.10;99.90;;;;;;5049159;28;20613;-32
2022/10/16 00:43:57;;;;;;;0.83;0.70;;;16.10;99.90;;;;;;5049149;28;20200;-32
2022/10/16 00:46:45;;;;;;;1.07;0.70;;;16.10;99.90;;;;;;5049223;28;20216;-32
2022/10/16 00:49:16;;;;;;;1.30;0.70;;;16.10;99.90;;;;;;5048895;28;20288;-32
2022/10/16 00:51:53;;;;;;;1.43;0.70;;;16.10;99.90;;;;;;5049231;28;20204;-32
2022/10/16 00:54:23;;;;;;;1.00;0.60;;;16.10;99.90;;;;;;5048869;28;20607;-32
2022/10/16 00:56:51;;;;;;;1.73;0.60;;;16.10;99.90;;;;;;5048820;28;20211;-32
2022/10/16 00:59:24;;;;;;;0.50;0.50;;;16.10;99.90;;;;;;5047866;28;20621;-32
2022/10/16 01:01:52;;;;;;;0.80;0.43;;;16.10;99.90;;;;;;5048680;28;20222;-32
2022/10/16 01:04:21;;;;;;;0.67;0.50;;;16.00;99.90;;;;;;5048600;28;20204;-32
2022/10/16 01:06:58;;;;;;;1.33;0.70;;;16.00;99.90;;;;;;5048224;28;20216;-32
2022/10/16 01:09:52;;;;;;;0.67;0.50;;;16.00;99.90;;;;;;5048436;28;20215;-32
2022/10/16 01:12:34;;;;;;;0.60;0.60;;;16.00;99.90;;;;;;5048774;28;20292;-32
2022/10/16 01:15:26;;;;;;;0.80;0.70;;;16.00;99.90;;;;;;5048326;28;20254;-33
2022/10/16 01:17:57;;;;;;;0.60;0.50;;;16.00;99.90;;;;;;5048130;28;20236;-32
2022/10/16 01:20:30;;;;;;;0.57;0.50;;;15.90;99.90;;;;;;5046751;28;20220;-32
2022/10/16 01:23:03;;;;;;;1.07;0.70;;;15.90;99.90;;;;;;5048292;28;20212;-32
2022/10/16 01:26:02;;;;;;;0.80;0.60;;;15.90;99.90;;;;;;5048448;28;20208;-32
2022/10/16 01:28:41;;;;;;;0.87;0.60;;;15.90;99.90;;;;;;5047933;28;20777;-33
2022/10/16 01:31:11;;;;;;;1.47;0.60;;;15.90;99.90;;;;;;5047879;28;20204;-32
2022/10/16 01:33:56;;;;;;;0.80;0.50;;;15.90;99.90;;;;;;5046657;28;20705;-32
2022/10/16 01:36:30;;;;;;;0.80;0.80;;;15.90;99.90;;;;;;5048322;28;20243;-32
2022/10/16 01:39:01;;;;;;;1.00;0.43;;;15.90;99.90;;;;;;5063214;28;20203;-32
2022/10/16 01:41:51;;;;;;;1.50;0.80;;;15.90;99.90;;;;;;5047868;28;20737;-31
2022/10/16 01:44:46;;;;;;;1.43;0.70;;;15.90;99.90;;;;;;5047797;28;20216;-32
2022/10/16 01:47:17;;;;;;;0.77;0.70;;;15.90;99.90;;;;;;5047521;28;20633;-33
2022/10/16 01:49:45;;;;;;;0.97;0.70;;;15.90;99.90;;;;;;5047959;28;20641;-32
2022/10/16 01:52:17;;;;;;;0.97;0.80;;;15.80;99.90;;;;;;5048306;28;20200;-33
2022/10/16 01:54:48;;;;;;;0.77;0.60;;;15.80;99.90;;;;;;5047670;28;20193;-32
2022/10/16 01:57:17;;;;;;;0.70;0.60;;;15.80;99.90;;;;;;5047825;28;20197;-32
2022/10/16 01:59:49;;;;;;;1.20;0.80;;;15.80;99.90;;;;;;5047697;28;20686;-33
2022/10/16 02:02:18;;;;;;;1.07;0.77;;;15.80;99.90;;;;;;5047738;28;20220;-32
2022/10/16 02:05:03;;;;;;;1.43;0.80;;;15.80;99.90;;;;;;5047707;28;20204;-32
2022/10/16 02:07:33;;;;;;;1.50;0.63;;;15.80;99.90;;;;;;5047589;28;20212;-31
2022/10/16 02:10:01;;;;;;;0.80;0.70;;;15.80;99.90;;;;;;5046249;28;20389;-32
2022/10/16 02:12:32;;;;;;;1.53;0.60;;;15.70;99.90;;;;;;5047871;28;20196;-32
2022/10/16 02:15:00;;;;;;;0.63;0.63;;;15.70;99.90;;;;;;5047994;28;20530;-32
2022/10/16 02:17:29;;;;;;;2.00;0.70;;;15.80;99.90;;;;;;5047453;28;20291;-32
2022/10/16 02:19:58;;;;;;;1.13;0.80;;;15.70;99.90;;;;;;5047572;28;20287;-32
2022/10/16 02:22:40;;;;;;;0.93;0.70;;;15.80;99.90;;;;;;5047598;28;20303;-32
2022/10/16 02:25:21;;;;;;;1.43;0.80;;;15.80;99.90;;;;;;5047588;28;20697;-32
2022/10/16 02:28:01;;;;;;;1.93;0.90;;;15.80;99.90;;;;;;5047416;28;20749;-32
2022/10/16 02:30:48;;;;;;;1.50;0.80;;;15.80;99.90;;;;;;5047620;28;20193;-32
2022/10/16 02:33:17;;;;;;;1.13;0.80;;;15.80;99.90;;;;;;5047814;28;20200;-32
2022/10/16 02:35:47;;;;;;;2.53;0.90;;;15.80;99.90;;;;;;5047903;28;20601;-32
2022/10/16 02:38:16;;;;;;;2.00;0.90;;;15.80;99.90;;;;;;5062786;28;20274;-32
2022/10/16 02:40:46;;;;;;;1.07;0.77;;;15.80;99.90;;;;;;5047627;28;20679;-32
2022/10/16 02:43:16;;;;;;;2.27;0.83;;;15.80;99.90;;;;;;5062696;28;20200;-32
2022/10/16 02:45:45;;;;;;;1.30;0.70;;;15.80;99.90;;;;;;5047425;28;20211;-32
2022/10/16 02:48:13;;;;;;;2.57;0.90;;;15.80;99.90;;;;;;5047463;28;20210;-32
2022/10/16 02:50:40;;;;;;;1.17;0.80;;;15.80;99.90;;;;;;5047401;28;20203;-32
2022/10/16 02:53:07;;;;;;;1.20;0.77;;;15.80;99.90;;;;;;5062238;28;20706;-32
2022/10/16 02:55:34;;;;;;;1.50;0.90;;;15.80;99.90;;;;;;5047213;28;20212;-32
2022/10/16 02:58:01;;;;;;;0.80;0.70;;;15.80;99.90;;;;;;5049917;28;20212;-32
2022/10/16 03:00:29;;;;;;;1.03;0.60;;;15.70;99.90;;;;;;5051103;28;20195;-32
2022/10/16 03:02:56;;;;;;;0.80;0.77;;;15.70;99.90;;;;;;5050892;28;20243;-32
2022/10/16 03:05:23;;;;;;;2.33;0.90;;;15.70;99.90;;;;;;5051170;28;20536;-32
2022/10/16 03:07:52;;;;;;;3.13;0.87;;;15.70;99.90;;;;;;5050657;28;20220;-32
2022/10/16 03:10:19;;;;;;;2.27;1.00;;;15.70;99.90;;;;;;5050636;28;20705;-32
2022/10/16 03:12:46;;;;;;;1.03;0.80;;;15.70;99.90;;;;;;5050766;28;20250;-32
2022/10/16 03:15:13;;;;;;;1.43;0.90;;;15.70;99.90;;;;;;5050718;28;20200;-32
2022/10/16 03:17:41;;;;;;;1.00;0.80;;;15.70;99.90;;;;;;5050330;28;20204;-32
2022/10/16 03:20:08;;;;;;;1.33;0.83;;;15.70;99.90;;;;;;5049228;28;20737;-32
2022/10/16 03:22:35;;;;;;;1.30;0.80;;;15.70;99.90;;;;;;5050648;28;20216;-32
2022/10/16 03:25:03;;;;;;;2.10;0.90;;;15.70;99.90;;;;;;5065686;28;20200;-32
2022/10/16 03:27:32;;;;;;;2.70;1.00;;;15.70;99.90;;;;;;5048978;28;20255;-32
2022/10/16 03:29:59;;;;;;;1.10;1.00;;;15.70;99.90;;;;;;5048941;28;20228;-32
2022/10/16 03:32:28;;;;;;;1.20;0.87;;;15.70;99.90;;;;;;5048823;28;20254;-32
2022/10/16 03:34:56;;;;;;;1.97;1.00;;;15.70;99.90;;;;;;5050406;28;20262;-33
2022/10/16 03:37:26;;;;;;;2.13;1.00;;;15.70;99.90;;;;;;5050490;28;20634;-33
2022/10/16 03:39:53;;;;;;;1.90;0.83;;;15.70;99.90;;;;;;5050051;28;20208;-32
2022/10/16 03:42:24;;;;;;;2.13;1.07;;;15.70;99.90;;;;;;5050457;28;20204;-33
2022/10/16 03:44:53;;;;;;;2.93;0.80;;;15.70;99.90;;;;;;5050640;28;20226;-33
2022/10/16 03:47:23;;;;;;;4.00;0.80;;;15.70;99.90;;;;;;5050348;28;20653;-33
2022/10/16 03:49:50;;;;;;;1.57;0.93;;;15.70;99.90;;;;;;5049824;28;20185;-33
2022/10/16 03:52:18;;;;;;;1.63;1.33;;;15.70;99.90;;;;;;5049945;28;20192;-33
2022/10/16 03:54:50;;;;;;;1.27;0.93;;;15.70;99.90;;;;;;5048628;28;20564;-31
2022/10/16 03:57:17;;;;;;;0.93;0.77;;;15.70;99.90;;;;;;5049944;28;20207;-32
2022/10/16 03:59:45;;;;;;;1.90;0.80;;;15.70;99.90;;;;;;5050312;28;20212;-33
2022/10/16 04:02:12;;;;;;;1.70;0.97;;;15.70;99.90;;;;;;5050053;28;20653;-32
2022/10/16 04:04:42;;;;;;;1.13;0.97;;;15.70;99.90;;;;;;5049797;28;20212;-32
2022/10/16 04:07:09;;;;;;;2.73;0.87;;;15.70;99.90;;;;;;5049640;28;20197;-31
2022/10/16 04:09:36;;;;;;;2.43;1.00;;;15.80;99.90;;;;;;5048573;28;20188;-31
2022/10/16 04:12:05;;;;;;;1.90;0.83;;;15.70;99.90;;;;;;5048282;28;20204;-31
2022/10/16 04:14:33;;;;;;;2.87;0.90;;;15.80;99.90;;;;;;5049704;28;20569;-31
2022/10/16 04:17:00;;;;;;;3.00;0.93;;;15.80;99.90;;;;;;5049689;28;20200;-33
2022/10/16 04:19:27;;;;;;;1.07;0.97;;;15.70;99.90;;;;;;5049346;28;20315;-31
2022/10/16 04:21:54;;;;;;;1.63;1.33;;;15.80;99.90;;;;;;5049457;28;20196;-32
2022/10/16 04:24:21;;;;;;;1.20;0.90;;;15.80;99.90;;;;;;5049410;28;20211;-32
2022/10/16 04:26:51;;;;;;;3.17;0.97;;;15.80;99.90;;;;;;5049257;28;20188;-32
2022/10/16 04:29:21;;;;;;;1.17;0.80;;;15.80;99.90;;;;;;5049093;28;20227;-32
2022/10/16 04:31:48;;;;;;;1.20;0.80;;;15.80;99.90;;;;;;5049131;28;20534;-32
2022/10/16 04:34:16;;;;;;;1.83;1.03;;;15.80;99.90;;;;;;5047836;28;20216;-32
2022/10/16 04:36:46;;;;;;;3.80;1.23;;;15.80;99.90;;;;;;5049106;28;20673;-33
2022/10/16 04:39:13;;;;;;;1.43;0.97;;;15.80;99.90;;;;;;5047882;28;20699;-33
2022/10/16 04:41:40;;;;;;;2.17;1.20;;;15.80;99.90;;;;;;5048999;28;20208;-32
2022/10/16 04:44:08;;;;;;;2.50;1.10;;;15.80;99.90;;;;;;5049149;28;20200;-32
2022/10/16 04:46:35;;;;;;;3.13;1.10;;;15.80;99.90;;;;;;5047528;28;20219;-33
2022/10/16 04:49:02;;;;;;;2.70;1.10;;;15.80;99.90;;;;;;5048869;28;20223;-33
2022/10/16 04:51:29;;;;;;;1.60;1.00;;;15.80;99.90;;;;;;5048919;28;20196;-31
2022/10/16 04:53:59;;;;;;;1.23;1.10;;;15.80;99.90;;;;;;5049080;28;20219;-31
2022/10/16 04:56:26;;;;;;;1.80;1.10;;;15.70;99.90;;;;;;5049171;28;20268;-33
2022/10/16 04:58:53;;;;;;;4.23;1.00;;;15.70;99.90;;;;;;5048466;28;20670;-31
2022/10/16 05:01:21;;;;;;;2.23;1.40;;;15.70;99.90;;;;;;5048646;28;20215;-33
2022/10/16 05:03:48;;;;;;;1.60;1.30;;;15.70;99.90;;;;;;5047210;28;20682;-31
2022/10/16 05:06:15;;;;;;;2.10;1.77;;;15.70;99.90;;;;;;5048265;28;20212;-31
2022/10/16 05:08:43;;;;;;;4.20;1.17;;;15.70;99.90;;;;;;5048323;28;20224;-33
2022/10/16 05:11:10;;;;;;;1.10;1.00;;;15.70;99.90;;;;;;5047101;28;20258;-33
2022/10/16 05:13:37;;;;;;;2.83;1.00;;;15.70;99.90;;;;;;5048592;28;20287;-32
2022/10/16 05:16:07;;;;;;;1.67;1.13;;;15.70;99.90;;;;;;5048341;28;20737;-32
2022/10/16 05:18:34;;;;;;;1.47;1.10;;;15.70;99.90;;;;;;5048280;28;20232;-31
2022/10/16 05:21:01;;;;;;;1.97;1.30;;;15.70;99.90;;;;;;5048012;28;20283;-32
2022/10/16 05:23:31;;;;;;;1.80;0.90;;;15.70;99.90;;;;;;5048269;28;20255;-32
2022/10/16 05:25:59;;;;;;;1.33;1.10;;;15.70;99.90;;;;;;5048330;28;20258;-33
2022/10/16 05:28:30;;;;;;;1.43;1.33;;;15.70;99.90;;;;;;5048662;28;20224;-32
2022/10/16 05:30:57;;;;;;;2.63;1.20;;;15.70;99.90;;;;;;5030439;28;20195;-32
2022/10/16 05:33:26;;;;;;;1.83;1.50;;;15.70;99.90;;;;;;5046827;28;20306;-32
2022/10/16 05:35:53;;;;;;;2.67;1.30;;;15.60;99.90;;;;;;5048385;28;20538;-32
2022/10/16 05:38:21;;;;;;;2.37;1.17;;;15.60;99.90;;;;;;5048038;28;20200;-32
2022/10/16 05:40:52;;;;;;;3.63;1.67;;;15.60;99.90;;;;;;5063292;28;20226;-31
2022/10/16 05:43:20;;;;;;;1.70;1.27;;;15.60;99.90;;;;;;5048208;28;20250;-32
2022/10/16 05:45:58;;;;;;;1.47;0.93;;;15.60;99.90;;;;;;5047964;28;20196;-32
2022/10/16 05:48:26;;;;;;;1.13;1.03;;;15.60;99.90;;;;;;5047843;28;20277;-33
2022/10/16 05:51:04;;;;;;;3.70;1.53;;;15.60;99.90;;;;;;5048124;28;20196;-32
2022/10/16 05:53:33;;;;;;;2.30;1.20;;;15.60;99.90;;;;;;5047812;28;20189;-31
2022/10/16 05:56:01;;;;;;;2.87;1.20;;;15.50;99.90;;;;;;5047814;28;20729;-34
2022/10/16 05:58:35;;;;;;;1.97;1.30;;;15.50;99.90;;;;;;5048255;28;20320;-32
2022/10/16 06:01:10;;;;;;;1.50;1.17;;;15.50;99.90;;;;;;5048208;28;20207;-32
2022/10/16 06:03:40;;;;;;;5.90;1.73;;;15.50;99.90;;;;;;5048097;28;20216;-33
2022/10/16 06:06:19;;;;;;;1.37;1.13;;;15.50;99.90;;;;;;5048467;28;20593;-32
2022/10/16 06:08:47;;;;;;;4.23;1.33;;;15.50;99.90;;;;;;5046192;28;20212;-32
2022/10/16 06:11:18;;;;;;;2.07;1.20;;;15.50;99.90;;;;;;5047698;28;20196;-32
2022/10/16 06:13:50;;;;;;;2.77;1.70;;;15.50;99.90;;;;;;5047690;28;20231;-33
2022/10/16 06:16:17;;;;;;;3.00;1.50;;;15.40;99.90;;;;;;5047628;28;20548;-32
2022/10/16 06:18:46;;;;;;;2.13;1.40;;;15.50;99.90;;;;;;5047349;28;20250;-31
2022/10/16 06:21:19;;;;;;;2.93;1.40;;;15.50;99.90;;;;;;5062690;28;20674;-31
2022/10/16 06:23:49;;;;;;;4.67;1.70;;;15.50;99.90;;;;;;5047542;28;20299;-31
2022/10/16 06:26:21;;;;;;;2.73;1.43;;;15.40;99.90;;;;;;5047437;28;20204;-32
2022/10/16 06:28:48;;;;;;;4.07;1.50;;;15.40;99.90;;;;;;5047534;28;20216;-32
2022/10/16 06:31:17;;;;;;;2.10;1.30;;;15.40;99.90;;;;;;5047433;28;20216;-33
2022/10/16 06:33:48;;;;;;;3.10;1.40;;;15.40;99.90;;;;;;5051429;28;20208;-31
2022/10/16 06:36:19;;;;;;;3.00;1.40;;;15.40;99.90;;;;;;5051704;28;20677;-32
2022/10/16 06:38:47;;;;;;;2.60;1.40;;;15.50;99.90;;;;;;5051465;28;20212;-32
2022/10/16 06:41:17;;;;;;;2.33;1.20;;;15.50;99.90;;;;;;5051354;28;20295;-32
2022/10/16 06:43:45;;;;;;;2.63;1.67;;;15.40;99.90;;;;;;5051771;28;20223;-32
2022/10/16 06:46:14;;;;;;;4.03;1.50;;;15.40;99.90;;;;;;5049902;28;20214;-32
2022/10/16 06:48:42;;;;;;;5.00;1.60;;;15.40;99.90;;;;;;5051119;28;20322;-32
2022/10/16 06:51:15;;;;;;;2.77;1.47;;;15.50;99.90;;;;;;5051020;28;20189;-32
2022/10/16 06:53:50;;;;;;;2.37;1.40;;;15.50;99.90;;;;;;5051042;28;20200;-32
2022/10/16 06:56:30;;;;;;;2.20;1.60;;;15.50;99.90;;;;;;5051208;28;20184;-32
2022/10/16 06:58:59;;;;;;;2.23;1.50;;;15.50;99.90;;;;;;5050801;28;20212;-32
2022/10/16 07:01:29;;;;;;;2.90;1.43;;;15.50;99.90;;;;;;5050825;28;20232;-32
2022/10/16 07:04:00;;;;;;;2.57;1.40;;;15.50;99.90;;;;;;5049397;28;20208;-32
2022/10/16 07:06:31;;;;;;;2.30;1.47;;;15.50;99.90;;;;;;5050641;28;20489;-32
2022/10/16 07:09:02;;;;;;;4.87;1.83;;;15.50;99.90;;;;;;5050897;28;20212;-32
2022/10/16 07:11:29;;;;;;;1.37;1.27;;;15.60;99.90;;;;;;5050713;28;20202;-32
2022/10/16 07:13:56;;;;;;;2.77;1.50;;;15.60;99.90;;;;;;5050585;28;20208;-32
2022/10/16 07:16:27;;;;;;;1.40;1.30;;;15.60;99.90;;;;;;5050973;28;20204;-32
2022/10/16 07:18:58;;;;;;;2.27;1.60;;;15.60;99.90;;;;;;5050284;28;20718;-32
2022/10/16 07:21:30;;;;;;;2.97;1.93;;;15.70;99.90;;;;;;5049581;28;20200;-32
2022/10/16 07:24:00;;;;;;;2.13;1.50;;;15.70;99.90;;;;;;5050859;28;20196;-32
2022/10/16 07:26:32;;;;;;;3.67;1.70;;;15.70;99.90;;;;;;5050519;28;20269;-33
2022/10/16 07:29:00;;;;;;;4.53;1.80;;;15.80;99.90;;;;;;5050385;28;20208;-32
2022/10/16 07:31:28;;;;;;;5.13;1.43;;;15.80;99.90;;;;;;5050541;28;20310;-31
2022/10/16 07:33:57;;;;;;;1.83;1.50;;;15.80;99.90;;;;;;5050342;28;20230;-33
2022/10/16 07:36:27;;;;;;;2.53;1.33;;;15.80;99.90;;;;;;5050264;28;20196;-33
2022/10/16 07:38:55;;;;;;;2.60;1.30;;;15.90;99.90;;;;;;5050178;28;20208;-31
2022/10/16 07:41:29;;;;;;;2.47;1.50;;;15.90;99.90;;;;;;5050247;28;20674;-31
2022/10/16 07:43:59;;;;;;;2.90;1.83;;;15.90;99.90;;;;;;5050301;28;20211;-33
2022/10/16 07:46:30;;;;;;;4.07;1.30;;;16.00;99.90;;;;;;5050377;28;20204;-33
2022/10/16 07:48:58;;;;;;;2.00;1.60;;;16.00;99.90;;;;;;5049880;28;20212;-31
2022/10/16 07:51:25;;;;;;;3.13;1.67;;;16.00;99.90;;;;;;5048749;28;20196;-31
2022/10/16 07:53:53;;;;;;;2.27;1.40;;;16.00;99.90;;;;;;5049998;28;20557;-32
2022/10/16 07:56:21;;;;;;;2.63;1.60;;;16.10;99.90;;;;;;5049939;28;20200;-32
2022/10/16 07:58:50;;;;;;;2.70;1.87;;;16.10;99.90;;;;;;5050205;28;20204;-32
2022/10/16 08:01:18;;;;;;;4.80;1.90;;;16.20;99.90;;;;;;5048480;28;20266;-32
2022/10/16 08:03:47;;;;;;;2.00;1.60;;;16.20;99.90;;;;;;5048421;28;20212;-32
2022/10/16 08:06:16;;;;;;;2.53;1.60;;;16.20;99.90;;;;;;5064743;28;20197;-32
2022/10/16 08:08:47;;;;;;;2.47;1.60;;;16.30;99.90;;;;;;5049542;28;20566;-32
2022/10/16 08:11:15;;;;;;;3.17;1.60;;;16.30;99.90;;;;;;5049772;28;20200;-32
2022/10/16 08:13:44;;;;;;;2.10;1.53;;;16.40;99.90;;;;;;5049382;28;20212;-32
2022/10/16 08:16:12;;;;;;;2.90;1.60;;;16.40;99.90;;;;;;5049682;28;20206;-32
2022/10/16 08:18:40;;;;;;;2.87;1.93;;;16.40;99.90;;;;;;5047985;28;20236;-32
2022/10/16 08:21:14;;;;;;;3.47;1.63;;;16.40;99.90;;;;;;5049358;28;20209;-32
2022/10/16 08:23:49;;;;;;;2.73;1.40;;;16.50;99.90;;;;;;5049269;28;20555;-32
2022/10/16 08:26:24;;;;;;;2.17;1.40;;;16.50;99.90;;;;;;5049198;28;20184;-32
2022/10/16 08:28:52;;;;;;;2.37;1.40;;;16.60;99.90;;;;;;5048794;28;20223;-32
2022/10/16 08:31:20;;;;;;;6.40;1.70;;;16.60;99.90;;;;;;5049172;28;20192;-32
2022/10/16 08:33:47;;;;;;;3.50;1.47;;;16.60;99.90;;;;;;5049094;28;20234;-32
2022/10/16 08:36:16;;;;;;;2.27;1.30;;;16.60;99.90;;;;;;5049222;28;20258;-32
2022/10/16 08:38:43;;;;;;;3.53;1.73;;;16.70;99.90;;;;;;5049312;28;20219;-32
2022/10/16 08:41:32;;;;;;;2.07;1.30;;;16.70;99.90;;;;;;5049054;28;20208;-32
2022/10/16 08:44:33;;;;;;;4.23;1.37;;;16.80;99.90;;;;;;5049164;28;20196;-32
2022/10/16 08:47:24;;;;;;;2.00;1.47;;;16.80;99.90;;;;;;5047598;28;20176;-32
2022/10/16 08:50:08;;;;;;;1.97;1.10;;;16.80;99.90;;;;;;5048968;28;20212;-32
2022/10/16 08:52:42;;;;;;;1.77;1.20;;;16.90;99.90;;;;;;5048843;28;20196;-32
2022/10/16 08:55:37;;;;;;;3.17;1.00;;;16.90;99.90;;;;;;5063355;28;20233;-32
2022/10/16 08:58:18;;;;;;;3.00;1.47;;;16.90;99.90;;;;;;5048639;28;20196;-32
2022/10/16 09:01:11;;;;;;;2.27;1.10;;;17.00;99.90;;;;;;5048546;28;20207;-32
2022/10/16 09:04:13;;;;;;;1.67;1.07;;;17.00;99.90;;;;;;5048598;28;20223;-32
2022/10/16 09:06:52;;;;;;;2.73;1.13;;;17.10;99.90;;;;;;5048511;28;20223;-32
2022/10/16 09:10:03;;;;;;;2.43;1.00;;;17.10;99.90;;;;;;5048560;28;20216;-32
2022/10/16 09:13:02;;;;;;;4.03;0.97;;;17.20;99.90;;;;;;5045702;28;20212;-32
2022/10/16 09:15:33;;;;;;;3.57;1.13;;;17.20;99.90;;;;;;5045867;28;20180;-32
2022/10/16 09:18:25;;;;;;;1.27;0.80;;;17.20;99.90;;;;;;5047175;28;20259;-32
2022/10/16 09:21:27;;;;;;;1.57;0.83;;;17.20;99.90;;;;;;5047304;28;20196;-32
2022/10/16 09:23:58;;;;;;;5.50;1.10;;;17.30;99.90;;;;;;5045911;28;20226;-32
2022/10/16 09:26:25;;;;;;;2.77;1.00;;;17.30;99.90;;;;;;5047402;28;20651;-32
2022/10/16 09:28:53;;;;;;;2.43;0.70;;;17.40;99.90;;;;;;5047641;28;20226;-32
2022/10/16 09:31:22;;;;;;;3.70;0.93;;;17.40;99.90;;;;;;5045899;28;20278;-32
2022/10/16 09:34:06;;;;;;;3.13;1.03;;;17.50;99.90;;;;;;5045947;28;20619;-32
2022/10/16 09:36:41;;;;;;;7.93;1.10;;;17.50;99.90;;;;;;5062727;28;20552;-32
2022/10/16 09:39:14;;;;;;;1.53;0.90;;;17.50;99.90;;;;;;5047660;28;20545;-32
2022/10/16 09:41:44;;;;;;;3.57;1.33;;;17.60;99.90;;;;;;5047069;28;20192;-33
2022/10/16 09:44:33;;;;;;;2.33;0.87;;;17.60;99.90;;;;;;5062220;28;20284;-32
2022/10/16 09:47:12;;;;;;;1.47;0.60;;;17.70;99.90;;;;;;5046792;28;20188;-32
2022/10/16 09:49:55;;;;;;;1.50;0.60;;;17.70;99.90;;;;;;5047540;28;20204;-32
2022/10/16 09:52:23;;;;;;;4.30;1.00;;;17.80;99.90;;;;;;5046776;28;20208;-32
2022/10/16 09:55:12;;;;;;;4.03;0.97;;;17.70;99.90;;;;;;5061809;28;20205;-32
2022/10/16 09:57:54;;;;;;;4.13;0.87;;;17.80;99.90;;;;;;5047061;28;20192;-32
2022/10/16 10:00:24;;;;;;;2.63;1.00;;;17.80;99.90;;;;;;5046907;28;20589;-32
2022/10/16 10:02:53;;;;;;;2.10;0.80;;;17.80;99.90;;;;;;5046956;28;20200;-32
2022/10/16 10:05:26;;;;;;;1.77;0.70;;;17.90;99.90;;;;;;5045613;28;20196;-32
2022/10/16 10:07:59;;;;;;;3.97;1.00;;;18.00;99.90;;;;;;5045539;28;20192;-32
2022/10/16 10:10:27;;;;;;;2.27;1.00;;;18.00;99.90;;;;;;5046555;28;20204;-32
2022/10/16 10:12:56;;;;;;;1.43;0.80;;;18.00;99.90;;;;;;5046647;28;20196;-32
2022/10/16 10:15:24;;;;;;;3.50;1.00;;;18.10;99.90;;;;;;5046663;28;20200;-31
2022/10/16 10:17:54;;;;;;;2.73;1.00;;;18.10;99.90;;;;;;5041415;28;138782;-32
2022/10/16 10:20:25;;;;;;;4.87;1.00;;;18.20;99.90;;;;;;5046286;28;20277;-32
2022/10/16 10:22:55;;;;;;;3.23;0.83;;;18.30;99.90;;;;;;5047696;28;20200;-33
2022/10/16 10:25:45;;;;;;;3.70;0.83;;;18.30;99.90;;;;;;5047157;28;20216;-31
2022/10/16 10:28:44;;;;;;;2.97;0.87;;;18.40;99.90;;;;;;5047298;28;20184;-32
2022/10/16 10:31:25;;;;;;;6.43;1.20;;;18.40;99.90;;;;;;5044592;28;20253;-33
2022/10/16 10:34:21;;;;;;;2.50;1.00;;;18.40;99.90;;;;;;5047299;28;20184;-31
2022/10/16 10:37:11;;;;;;;3.90;0.80;;;18.40;99.90;;;;;;5047228;28;20207;-32
2022/10/16 10:40:00;;;;;;;2.50;0.90;;;18.50;99.90;;;;;;5047150;28;20200;-33
2022/10/16 10:42:42;;;;;;;2.10;0.80;;;18.50;99.90;;;;;;5047215;28;20435;-31
2022/10/16 10:45:46;;;;;;;2.70;0.70;;;18.60;99.90;;;;;;5047414;28;20524;-33
2022/10/16 10:48:22;;;;;;;3.23;0.80;;;18.60;99.90;;;;;;5047277;28;20606;-32
2022/10/16 10:50:56;;;;;;;2.90;0.80;;;18.70;99.90;;;;;;5047146;28;20212;-32
2022/10/16 10:53:29;;;;;;;2.57;0.77;;;18.70;99.90;;;;;;5047602;28;20192;-32
2022/10/16 10:56:06;;;;;;;1.93;0.70;;;18.70;99.90;;;;;;5047498;28;20675;-32
2022/10/16 10:59:20;;;;;;;4.10;1.10;;;18.80;99.90;;;;;;5047224;28;20788;-32
2022/10/16 11:01:58;;;;;;;4.23;1.13;;;18.80;99.90;;;;;;5046041;28;21012;-32
2022/10/16 11:05:04;;;;;;;3.07;0.80;;;18.90;99.90;;;;;;5047139;28;20200;-32
2022/10/16 11:07:40;;;;;;;3.83;0.90;;;19.00;99.90;;;;;;5047177;28;20200;-32
2022/10/16 11:10:20;;;;;;;2.27;0.50;;;19.00;99.90;;;;;;5047147;28;20230;-32
2022/10/16 11:12:58;;;;;;;3.40;0.80;;;19.00;99.90;;;;;;5047211;28;20238;-32
2022/10/16 11:15:36;;;;;;;2.50;0.80;;;19.10;99.90;;;;;;5046838;28;20206;-32
2022/10/16 11:18:26;;;;;;;0.80;0.50;;;19.00;99.90;;;;;;5047807;28;20243;-32
2022/10/16 11:20:58;;;;;;;2.83;0.70;;;19.00;99.90;;;;;;5050493;28;20208;-32
2022/10/16 11:23:31;;;;;;;1.53;0.63;;;19.10;99.90;;;;;;5050522;28;20188;-32
2022/10/16 11:26:08;;;;;;;1.50;0.73;;;19.00;99.90;;;;;;5050501;28;20227;-32
2022/10/16 11:28:42;;;;;;;5.33;0.80;;;19.10;99.90;;;;;;5050217;28;20202;-32
2022/10/16 11:31:19;;;;;;;4.53;1.00;;;19.10;99.90;;;;;;5050224;28;20220;-32
2022/10/16 11:34:28;;;;;;;1.07;0.80;;;19.10;99.90;;;;;;5050512;28;20231;-32
2022/10/16 11:37:05;;;;;;;2.97;0.80;;;19.10;99.90;;;;;;5064901;28;20215;-32
2022/10/16 11:39:33;;;;;;;1.43;0.50;;;19.10;99.90;;;;;;5050227;28;20184;-32
2022/10/16 11:42:13;;;;;;;2.03;0.77;;;19.10;99.90;;;;;;5049964;28;20228;-32
2022/10/16 11:45:05;;;;;;;1.90;0.73;;;19.10;99.90;;;;;;5050443;28;20188;-32
2022/10/16 11:47:44;;;;;;;5.40;0.70;;;19.20;99.90;;;;;;5048744;28;20234;-32
2022/10/16 11:50:43;;;;;;;3.47;1.00;;;19.20;99.90;;;;;;5049781;28;20220;-32
2022/10/16 11:53:59;;;;;;;2.60;0.70;;;19.20;99.90;;;;;;5049840;28;20238;-32
2022/10/16 11:56:28;;;;;;;2.57;0.90;;;19.20;99.90;;;;;;5062339;28;20722;-32
2022/10/16 11:59:07;;;;;;;2.00;0.67;;;19.20;99.90;;;;;;5049572;28;20227;-32
2022/10/16 12:01:46;;;;;;;1.63;0.80;;;19.20;99.90;;;;;;5048162;28;20184;-33
2022/10/16 12:04:33;;;;;;;3.83;1.00;;;19.30;99.90;;;;;;5049684;28;20204;-33
2022/10/16 12:07:11;;;;;;;4.33;0.67;;;19.30;99.90;;;;;;5049266;28;20196;-33
2022/10/16 12:09:40;;;;;;;2.17;0.50;;;19.30;99.90;;;;;;5048849;28;20282;-33
2022/10/16 12:12:39;;;;;;;3.10;0.63;;;19.30;99.90;;;;;;5048213;28;20192;-33
2022/10/16 12:15:23;;;;;;;3.20;0.70;;;19.40;99.90;;;;;;5049073;28;20231;-33
2022/10/16 12:18:22;;;;;;;1.17;0.50;;;19.40;99.90;;;;;;5048000;28;20693;-33
2022/10/16 12:21:05;;;;;;;2.73;0.70;;;19.40;99.90;;;;;;5049889;28;20203;-33
2022/10/16 12:23:37;;;;;;;2.67;0.97;;;19.50;99.90;;;;;;5048167;28;20318;-32
2022/10/16 12:26:05;;;;;;;2.87;0.70;;;19.60;99.90;;;;;;5048946;28;20216;-33
2022/10/16 12:28:33;;;;;;;2.07;0.80;;;19.60;99.90;;;;;;5047632;28;20208;-32
2022/10/16 12:31:05;;;;;;;3.03;0.77;;;19.70;99.90;;;;;;5048395;28;20332;-33
2022/10/16 12:33:35;;;;;;;2.37;0.90;;;19.80;99.90;;;;;;5047680;28;20212;-32
2022/10/16 12:36:07;;;;;;;2.97;0.70;;;19.80;99.90;;;;;;5049113;28;20204;-33
2022/10/16 12:38:51;;;;;;;1.10;0.57;;;19.90;99.90;;;;;;5047753;28;20188;-33
2022/10/16 12:41:37;;;;;;;1.43;0.60;;;20.00;99.90;;;;;;5048780;28;20208;-33
2022/10/16 12:44:04;;;;;;;3.83;0.80;;;20.00;99.90;;;;;;5049027;28;20235;-34
2022/10/16 12:46:37;;;;;;;2.43;0.73;;;20.10;99.90;;;;;;5047316;28;20633;-33
2022/10/16 12:49:13;;;;;;;2.70;0.80;;;20.10;99.90;;;;;;5048718;28;20323;-32
2022/10/16 12:51:42;;;;;;;2.80;0.70;;;20.20;99.90;;;;;;5048705;28;20586;-32
2022/10/16 12:54:30;;;;;;;6.53;1.27;;;20.30;99.90;;;;;;5048665;28;20207;-33
2022/10/16 12:57:06;;;;;;;1.60;0.60;;;20.30;99.90;;;;;;5048691;28;20193;-32
2022/10/16 13:00:09;;;;;;;1.50;0.80;;;20.40;99.90;;;;;;5048602;28;20718;-33
2022/10/16 13:02:47;;;;;;;4.37;0.90;;;20.40;99.90;;;;;;5048877;28;20215;-33
2022/10/16 13:05:40;;;;;;;2.03;0.70;;;20.40;99.90;;;;;;5048489;28;20196;-32
2022/10/16 13:08:41;;;;;;;2.57;0.77;;;20.40;99.90;;;;;;5048793;28;20744;-33
2022/10/16 13:11:43;;;;;;;3.27;0.80;;;20.40;99.90;;;;;;5063378;28;20216;-33
2022/10/16 13:14:36;;;;;;;2.80;0.77;;;20.40;99.90;;;;;;5048508;28;20202;-33
2022/10/16 13:17:31;;;;;;;1.63;0.70;;;20.50;99.90;;;;;;5048409;28;20307;-33
2022/10/16 13:20:01;;;;;;;1.17;0.50;;;20.50;99.90;;;;;;5048424;28;20209;-33
2022/10/16 13:22:56;;;;;;;2.60;0.80;;;20.50;99.90;;;;;;5048085;28;20200;-33
2022/10/16 13:25:23;;;;;;;4.47;0.70;;;20.60;99.90;;;;;;5048201;28;20222;-33